sensor_id;sensor_type;location;lat;lon;timestamp;P1;durP1;ratioP1;P2;durP2;ratioP2
49051;SDS011;34866;48.670;18.260;2023-07-29T00:02:27;6.50;;;2.80;;
49051;SDS011;34866;48.670;18.260;2023-07-29T00:04:58;5.90;;;3.13;;
49051;SDS011;34866;48.670;18.260;2023-07-29T00:07:53;6.28;;;3.03;;
49051;SDS011;34866;48.670;18.260;2023-07-29T00:11:00;9.40;;;4.53;;
49051;SDS011;34866;48.670;18.260;2023-07-29T00:13:49;7.70;;;3.17;;
49051;SDS011;34866;48.670;18.260;2023-07-29T00:16:35;8.82;;;4.40;;
49051;SDS011;34866;48.670;18.260;2023-07-29T00:19:03;7.30;;;3.50;;
49051;SDS011;34866;48.670;18.260;2023-07-29T00:21:30;7.07;;;3.45;;
49051;SDS011;34866;48.670;18.260;2023-07-29T00:24:02;7.15;;;3.53;;
49051;SDS011;34866;48.670;18.260;2023-07-29T00:26:38;14.27;;;3.47;;
49051;SDS011;34866;48.670;18.260;2023-07-29T00:32:53;6.70;;;3.90;;
49051;SDS011;34866;48.670;18.260;2023-07-29T00:35:29;7.22;;;3.95;;
49051;SDS011;34866;48.670;18.260;2023-07-29T00:38:22;9.00;;;3.72;;
49051;SDS011;34866;48.670;18.260;2023-07-29T00:41:11;6.78;;;2.97;;
49051;SDS011;34866;48.670;18.260;2023-07-29T00:43:42;8.32;;;3.10;;
49051;SDS011;34866;48.670;18.260;2023-07-29T00:46:33;6.05;;;3.03;;
49051;SDS011;34866;48.670;18.260;2023-07-29T00:49:09;8.30;;;3.17;;
49051;SDS011;34866;48.670;18.260;2023-07-29T00:52:19;5.47;;;3.15;;
49051;SDS011;34866;48.670;18.260;2023-07-29T00:55:08;7.88;;;2.92;;
49051;SDS011;34866;48.670;18.260;2023-07-29T01:00:57;8.43;;;3.15;;
49051;SDS011;34866;48.670;18.260;2023-07-29T01:03:56;7.53;;;3.88;;
49051;SDS011;34866;48.670;18.260;2023-07-29T01:16:58;5.97;;;3.20;;
49051;SDS011;34866;48.670;18.260;2023-07-29T01:22:59;11.27;;;3.55;;
49051;SDS011;34866;48.670;18.260;2023-07-29T01:25:35;7.90;;;3.03;;
49051;SDS011;34866;48.670;18.260;2023-07-29T01:28:22;8.10;;;3.22;;
49051;SDS011;34866;48.670;18.260;2023-07-29T01:31:06;8.75;;;3.20;;
49051;SDS011;34866;48.670;18.260;2023-07-29T01:36:50;7.55;;;3.10;;
49051;SDS011;34866;48.670;18.260;2023-07-29T01:39:46;7.15;;;3.45;;
49051;SDS011;34866;48.670;18.260;2023-07-29T01:42:34;6.97;;;3.67;;
49051;SDS011;34866;48.670;18.260;2023-07-29T01:45:31;7.68;;;3.22;;
49051;SDS011;34866;48.670;18.260;2023-07-29T01:48:12;7.57;;;3.15;;
49051;SDS011;34866;48.670;18.260;2023-07-29T01:53:28;6.80;;;3.60;;
49051;SDS011;34866;48.670;18.260;2023-07-29T01:55:57;6.50;;;3.38;;
49051;SDS011;34866;48.670;18.260;2023-07-29T01:58:49;11.35;;;3.13;;
49051;SDS011;34866;48.670;18.260;2023-07-29T02:02:00;5.78;;;2.92;;
49051;SDS011;34866;48.670;18.260;2023-07-29T02:04:46;6.95;;;3.33;;
49051;SDS011;34866;48.670;18.260;2023-07-29T02:07:53;6.65;;;2.75;;
49051;SDS011;34866;48.670;18.260;2023-07-29T02:13:28;8.15;;;3.78;;
49051;SDS011;34866;48.670;18.260;2023-07-29T02:17:06;8.82;;;3.42;;
49051;SDS011;34866;48.670;18.260;2023-07-29T02:25:45;8.20;;;3.15;;
49051;SDS011;34866;48.670;18.260;2023-07-29T02:28:12;6.22;;;2.97;;
49051;SDS011;34866;48.670;18.260;2023-07-29T02:30:40;9.13;;;3.97;;
49051;SDS011;34866;48.670;18.260;2023-07-29T02:36:02;9.50;;;3.58;;
49051;SDS011;34866;48.670;18.260;2023-07-29T02:38:30;5.57;;;3.17;;
49051;SDS011;34866;48.670;18.260;2023-07-29T02:41:34;6.40;;;3.47;;
49051;SDS011;34866;48.670;18.260;2023-07-29T02:44:45;7.43;;;3.72;;
49051;SDS011;34866;48.670;18.260;2023-07-29T02:47:17;6.43;;;3.00;;
49051;SDS011;34866;48.670;18.260;2023-07-29T02:49:56;9.70;;;3.50;;
49051;SDS011;34866;48.670;18.260;2023-07-29T02:53:03;6.97;;;2.97;;
49051;SDS011;34866;48.670;18.260;2023-07-29T02:58:57;7.65;;;3.42;;
49051;SDS011;34866;48.670;18.260;2023-07-29T03:02:24;9.45;;;3.10;;
49051;SDS011;34866;48.670;18.260;2023-07-29T03:12:18;6.57;;;3.10;;
49051;SDS011;34866;48.670;18.260;2023-07-29T03:18:43;17.25;;;4.20;;
49051;SDS011;34866;48.670;18.260;2023-07-29T03:21:15;8.30;;;3.40;;
49051;SDS011;34866;48.670;18.260;2023-07-29T03:24:07;7.13;;;3.63;;
49051;SDS011;34866;48.670;18.260;2023-07-29T03:31:10;16.48;;;3.20;;
49051;SDS011;34866;48.670;18.260;2023-07-29T03:34:08;6.70;;;3.42;;
49051;SDS011;34866;48.670;18.260;2023-07-29T03:36:56;8.55;;;3.63;;
49051;SDS011;34866;48.670;18.260;2023-07-29T03:45:07;8.20;;;3.00;;
49051;SDS011;34866;48.670;18.260;2023-07-29T03:48:11;8.60;;;4.22;;
49051;SDS011;34866;48.670;18.260;2023-07-29T03:50:58;5.47;;;2.95;;
49051;SDS011;34866;48.670;18.260;2023-07-29T03:53:33;10.82;;;3.47;;
49051;SDS011;34866;48.670;18.260;2023-07-29T04:13:22;9.90;;;3.33;;
49051;SDS011;34866;48.670;18.260;2023-07-29T04:16:18;6.57;;;3.67;;
49051;SDS011;34866;48.670;18.260;2023-07-29T04:19:04;5.82;;;3.38;;
49051;SDS011;34866;48.670;18.260;2023-07-29T04:25:22;6.95;;;3.53;;
49051;SDS011;34866;48.670;18.260;2023-07-29T04:28:10;6.30;;;2.88;;
49051;SDS011;34866;48.670;18.260;2023-07-29T04:31:24;8.35;;;3.60;;
49051;SDS011;34866;48.670;18.260;2023-07-29T04:34:18;6.60;;;3.33;;
49051;SDS011;34866;48.670;18.260;2023-07-29T04:37:05;12.45;;;3.40;;
49051;SDS011;34866;48.670;18.260;2023-07-29T04:39:36;6.93;;;3.65;;
49051;SDS011;34866;48.670;18.260;2023-07-29T04:42:41;8.73;;;3.58;;
49051;SDS011;34866;48.670;18.260;2023-07-29T04:51:42;6.32;;;3.67;;
49051;SDS011;34866;48.670;18.260;2023-07-29T04:54:10;6.80;;;3.85;;
49051;SDS011;34866;48.670;18.260;2023-07-29T04:59:22;6.57;;;3.55;;
49051;SDS011;34866;48.670;18.260;2023-07-29T05:01:50;7.05;;;4.03;;
49051;SDS011;34866;48.670;18.260;2023-07-29T05:04:48;7.75;;;4.13;;
49051;SDS011;34866;48.670;18.260;2023-07-29T05:07:35;9.70;;;3.80;;
49051;SDS011;34866;48.670;18.260;2023-07-29T05:10:07;6.60;;;3.17;;
49051;SDS011;34866;48.670;18.260;2023-07-29T05:12:39;7.03;;;3.40;;
49051;SDS011;34866;48.670;18.260;2023-07-29T05:15:20;9.40;;;3.10;;
49051;SDS011;34866;48.670;18.260;2023-07-29T05:17:47;7.20;;;3.50;;
49051;SDS011;34866;48.670;18.260;2023-07-29T05:20:12;9.55;;;3.22;;
49051;SDS011;34866;48.670;18.260;2023-07-29T05:22:47;7.00;;;3.20;;
49051;SDS011;34866;48.670;18.260;2023-07-29T05:25:19;7.05;;;3.50;;
49051;SDS011;34866;48.670;18.260;2023-07-29T05:27:47;6.80;;;3.13;;
49051;SDS011;34866;48.670;18.260;2023-07-29T05:30:39;7.40;;;3.20;;
49051;SDS011;34866;48.670;18.260;2023-07-29T05:33:29;9.10;;;3.50;;
49051;SDS011;34866;48.670;18.260;2023-07-29T05:36:05;6.20;;;3.33;;
49051;SDS011;34866;48.670;18.260;2023-07-29T05:38:31;6.85;;;3.60;;
49051;SDS011;34866;48.670;18.260;2023-07-29T05:41:01;7.63;;;3.67;;
49051;SDS011;34866;48.670;18.260;2023-07-29T05:44:05;9.07;;;4.15;;
49051;SDS011;34866;48.670;18.260;2023-07-29T05:46:36;6.18;;;3.13;;
49051;SDS011;34866;48.670;18.260;2023-07-29T05:49:24;6.65;;;3.10;;
49051;SDS011;34866;48.670;18.260;2023-07-29T05:52:12;5.72;;;3.33;;
49051;SDS011;34866;48.670;18.260;2023-07-29T05:55:04;7.20;;;3.53;;
49051;SDS011;34866;48.670;18.260;2023-07-29T05:57:50;7.28;;;3.75;;
49051;SDS011;34866;48.670;18.260;2023-07-29T06:00:36;7.45;;;3.60;;
49051;SDS011;34866;48.670;18.260;2023-07-29T06:03:06;5.88;;;3.15;;
49051;SDS011;34866;48.670;18.260;2023-07-29T06:05:39;7.85;;;3.70;;
49051;SDS011;34866;48.670;18.260;2023-07-29T06:08:25;5.97;;;3.20;;
49051;SDS011;34866;48.670;18.260;2023-07-29T06:10:53;6.65;;;3.38;;
49051;SDS011;34866;48.670;18.260;2023-07-29T06:13:40;7.03;;;3.63;;
49051;SDS011;34866;48.670;18.260;2023-07-29T06:16:49;6.93;;;3.50;;
49051;SDS011;34866;48.670;18.260;2023-07-29T06:19:17;7.25;;;3.78;;
49051;SDS011;34866;48.670;18.260;2023-07-29T06:21:52;7.47;;;3.78;;
49051;SDS011;34866;48.670;18.260;2023-07-29T06:24:23;9.88;;;4.00;;
49051;SDS011;34866;48.670;18.260;2023-07-29T06:27:36;7.35;;;3.40;;
49051;SDS011;34866;48.670;18.260;2023-07-29T06:30:26;8.15;;;3.75;;
49051;SDS011;34866;48.670;18.260;2023-07-29T06:33:00;6.60;;;3.75;;
49051;SDS011;34866;48.670;18.260;2023-07-29T06:35:30;6.93;;;3.97;;
49051;SDS011;34866;48.670;18.260;2023-07-29T06:37:57;9.80;;;3.70;;
49051;SDS011;34866;48.670;18.260;2023-07-29T06:40:26;8.60;;;3.88;;
49051;SDS011;34866;48.670;18.260;2023-07-29T06:43:11;7.18;;;3.80;;
49051;SDS011;34866;48.670;18.260;2023-07-29T06:45:37;9.10;;;4.20;;
49051;SDS011;34866;48.670;18.260;2023-07-29T06:48:09;8.10;;;3.83;;
49051;SDS011;34866;48.670;18.260;2023-07-29T06:50:41;7.10;;;4.07;;
49051;SDS011;34866;48.670;18.260;2023-07-29T06:53:41;11.38;;;4.18;;
49051;SDS011;34866;48.670;18.260;2023-07-29T06:56:33;11.35;;;4.05;;
49051;SDS011;34866;48.670;18.260;2023-07-29T06:59:00;6.65;;;3.63;;
49051;SDS011;34866;48.670;18.260;2023-07-29T07:01:47;10.35;;;4.70;;
49051;SDS011;34866;48.670;18.260;2023-07-29T07:04:13;8.45;;;4.20;;
49051;SDS011;34866;48.670;18.260;2023-07-29T07:06:39;12.93;;;4.22;;
49051;SDS011;34866;48.670;18.260;2023-07-29T07:09:05;9.88;;;3.78;;
49051;SDS011;34866;48.670;18.260;2023-07-29T07:11:31;13.68;;;3.92;;
49051;SDS011;34866;48.670;18.260;2023-07-29T07:14:10;10.50;;;4.38;;
49051;SDS011;34866;48.670;18.260;2023-07-29T07:17:23;9.63;;;3.88;;
49051;SDS011;34866;48.670;18.260;2023-07-29T07:19:49;10.55;;;4.18;;
49051;SDS011;34866;48.670;18.260;2023-07-29T07:22:15;8.50;;;4.18;;
49051;SDS011;34866;48.670;18.260;2023-07-29T07:24:41;6.65;;;3.60;;
49051;SDS011;34866;48.670;18.260;2023-07-29T07:27:07;8.27;;;4.07;;
49051;SDS011;34866;48.670;18.260;2023-07-29T07:29:33;8.13;;;4.10;;
49051;SDS011;34866;48.670;18.260;2023-07-29T07:31:58;8.23;;;4.25;;
49051;SDS011;34866;48.670;18.260;2023-07-29T07:34:27;8.15;;;3.58;;
49051;SDS011;34866;48.670;18.260;2023-07-29T07:36:52;9.98;;;4.05;;
49051;SDS011;34866;48.670;18.260;2023-07-29T07:39:21;7.88;;;4.18;;
49051;SDS011;34866;48.670;18.260;2023-07-29T07:42:09;8.45;;;4.28;;
49051;SDS011;34866;48.670;18.260;2023-07-29T07:44:35;6.70;;;3.78;;
49051;SDS011;34866;48.670;18.260;2023-07-29T07:47:01;8.55;;;4.25;;
49051;SDS011;34866;48.670;18.260;2023-07-29T07:49:27;11.15;;;4.07;;
49051;SDS011;34866;48.670;18.260;2023-07-29T07:51:53;9.60;;;4.38;;
49051;SDS011;34866;48.670;18.260;2023-07-29T07:54:22;6.97;;;4.00;;
49051;SDS011;34866;48.670;18.260;2023-07-29T07:57:07;10.15;;;5.45;;
49051;SDS011;34866;48.670;18.260;2023-07-29T08:00:10;8.50;;;4.30;;
49051;SDS011;34866;48.670;18.260;2023-07-29T08:05:14;8.90;;;3.83;;
49051;SDS011;34866;48.670;18.260;2023-07-29T08:07:55;11.23;;;6.15;;
49051;SDS011;34866;48.670;18.260;2023-07-29T08:10:48;10.68;;;4.05;;
49051;SDS011;34866;48.670;18.260;2023-07-29T08:13:58;9.60;;;4.18;;
49051;SDS011;34866;48.670;18.260;2023-07-29T08:16:24;13.45;;;5.57;;
49051;SDS011;34866;48.670;18.260;2023-07-29T08:18:52;7.22;;;3.47;;
49051;SDS011;34866;48.670;18.260;2023-07-29T08:21:22;7.78;;;4.15;;
49051;SDS011;34866;48.670;18.260;2023-07-29T08:23:48;7.72;;;3.85;;
49051;SDS011;34866;48.670;18.260;2023-07-29T08:26:15;7.60;;;3.78;;
49051;SDS011;34866;48.670;18.260;2023-07-29T08:29:01;7.55;;;4.65;;
49051;SDS011;34866;48.670;18.260;2023-07-29T08:31:27;7.18;;;3.92;;
49051;SDS011;34866;48.670;18.260;2023-07-29T08:34:16;7.10;;;4.20;;
49051;SDS011;34866;48.670;18.260;2023-07-29T08:36:42;8.82;;;4.50;;
49051;SDS011;34866;48.670;18.260;2023-07-29T08:39:08;10.13;;;4.45;;
49051;SDS011;34866;48.670;18.260;2023-07-29T08:44:40;6.72;;;3.42;;
49051;SDS011;34866;48.670;18.260;2023-07-29T08:47:06;8.90;;;4.13;;
49051;SDS011;34866;48.670;18.260;2023-07-29T08:49:36;9.07;;;4.00;;
49051;SDS011;34866;48.670;18.260;2023-07-29T08:52:02;9.27;;;4.07;;
49051;SDS011;34866;48.670;18.260;2023-07-29T08:54:29;8.10;;;3.47;;
49051;SDS011;34866;48.670;18.260;2023-07-29T09:00:14;7.53;;;3.80;;
49051;SDS011;34866;48.670;18.260;2023-07-29T09:02:40;9.80;;;4.93;;
49051;SDS011;34866;48.670;18.260;2023-07-29T09:05:06;8.00;;;4.50;;
49051;SDS011;34866;48.670;18.260;2023-07-29T09:07:37;13.48;;;4.20;;
49051;SDS011;34866;48.670;18.260;2023-07-29T09:10:08;7.53;;;3.97;;
49051;SDS011;34866;48.670;18.260;2023-07-29T09:12:36;6.82;;;3.83;;
49051;SDS011;34866;48.670;18.260;2023-07-29T09:15:02;6.03;;;3.40;;
49051;SDS011;34866;48.670;18.260;2023-07-29T09:17:37;9.30;;;3.85;;
49051;SDS011;34866;48.670;18.260;2023-07-29T09:20:02;6.47;;;3.15;;
49051;SDS011;34866;48.670;18.260;2023-07-29T09:22:31;8.73;;;3.35;;
49051;SDS011;34866;48.670;18.260;2023-07-29T09:24:56;5.22;;;2.75;;
49051;SDS011;34866;48.670;18.260;2023-07-29T09:27:23;9.88;;;3.67;;
49051;SDS011;34866;48.670;18.260;2023-07-29T09:29:57;7.88;;;3.13;;
49051;SDS011;34866;48.670;18.260;2023-07-29T09:32:24;6.47;;;3.08;;
49051;SDS011;34866;48.670;18.260;2023-07-29T09:34:50;7.43;;;3.78;;
49051;SDS011;34866;48.670;18.260;2023-07-29T09:37:23;9.32;;;3.42;;
49051;SDS011;34866;48.670;18.260;2023-07-29T09:39:49;7.03;;;3.25;;
49051;SDS011;34866;48.670;18.260;2023-07-29T09:42:18;7.13;;;3.60;;
49051;SDS011;34866;48.670;18.260;2023-07-29T09:44:45;6.07;;;2.80;;
49051;SDS011;34866;48.670;18.260;2023-07-29T09:47:18;6.15;;;3.10;;
49051;SDS011;34866;48.670;18.260;2023-07-29T09:49:48;5.07;;;2.67;;
49051;SDS011;34866;48.670;18.260;2023-07-29T09:52:18;7.03;;;2.67;;
49051;SDS011;34866;48.670;18.260;2023-07-29T09:54:45;9.45;;;2.90;;
49051;SDS011;34866;48.670;18.260;2023-07-29T09:57:13;5.95;;;2.72;;
49051;SDS011;34866;48.670;18.260;2023-07-29T09:59:39;9.15;;;2.78;;
49051;SDS011;34866;48.670;18.260;2023-07-29T10:02:09;5.30;;;2.45;;
49051;SDS011;34866;48.670;18.260;2023-07-29T10:04:43;4.93;;;2.20;;
49051;SDS011;34866;48.670;18.260;2023-07-29T10:07:10;4.85;;;2.30;;
49051;SDS011;34866;48.670;18.260;2023-07-29T10:09:39;6.50;;;1.85;;
49051;SDS011;34866;48.670;18.260;2023-07-29T10:12:08;8.75;;;2.03;;
49051;SDS011;34866;48.670;18.260;2023-07-29T10:14:35;3.95;;;1.85;;
49051;SDS011;34866;48.670;18.260;2023-07-29T10:17:04;4.07;;;1.75;;
49051;SDS011;34866;48.670;18.260;2023-07-29T10:19:34;3.95;;;1.52;;
49051;SDS011;34866;48.670;18.260;2023-07-29T10:22:00;3.90;;;1.70;;
49051;SDS011;34866;48.670;18.260;2023-07-29T10:24:30;5.80;;;1.67;;
49051;SDS011;34866;48.670;18.260;2023-07-29T10:26:58;5.50;;;2.45;;
49051;SDS011;34866;48.670;18.260;2023-07-29T10:29:45;4.07;;;1.73;;
49051;SDS011;34866;48.670;18.260;2023-07-29T10:32:12;4.97;;;1.95;;
49051;SDS011;34866;48.670;18.260;2023-07-29T10:34:43;4.80;;;1.60;;
49051;SDS011;34866;48.670;18.260;2023-07-29T10:37:09;4.20;;;2.22;;
49051;SDS011;34866;48.670;18.260;2023-07-29T10:39:39;5.50;;;1.73;;
49051;SDS011;34866;48.670;18.260;2023-07-29T10:42:06;4.05;;;1.83;;
49051;SDS011;34866;48.670;18.260;2023-07-29T10:44:51;3.55;;;1.95;;
49051;SDS011;34866;48.670;18.260;2023-07-29T10:49:46;6.47;;;1.80;;
49051;SDS011;34866;48.670;18.260;2023-07-29T10:52:13;3.85;;;1.85;;
49051;SDS011;34866;48.670;18.260;2023-07-29T10:54:44;3.63;;;1.83;;
49051;SDS011;34866;48.670;18.260;2023-07-29T10:57:15;4.55;;;1.90;;
49051;SDS011;34866;48.670;18.260;2023-07-29T10:59:55;4.03;;;1.98;;
49051;SDS011;34866;48.670;18.260;2023-07-29T11:02:28;3.50;;;1.45;;
49051;SDS011;34866;48.670;18.260;2023-07-29T11:05:16;7.20;;;1.60;;
49051;SDS011;34866;48.670;18.260;2023-07-29T11:07:52;4.22;;;1.50;;
49051;SDS011;34866;48.670;18.260;2023-07-29T11:10:18;3.70;;;1.60;;
49051;SDS011;34866;48.670;18.260;2023-07-29T11:12:46;3.13;;;1.42;;
49051;SDS011;34866;48.670;18.260;2023-07-29T11:15:22;2.42;;;1.30;;
49051;SDS011;34866;48.670;18.260;2023-07-29T11:17:53;3.10;;;1.45;;
49051;SDS011;34866;48.670;18.260;2023-07-29T11:20:21;2.85;;;1.48;;
49051;SDS011;34866;48.670;18.260;2023-07-29T11:22:48;3.00;;;1.40;;
49051;SDS011;34866;48.670;18.260;2023-07-29T11:25:16;4.15;;;1.30;;
49051;SDS011;34866;48.670;18.260;2023-07-29T11:27:42;3.40;;;1.10;;
49051;SDS011;34866;48.670;18.260;2023-07-29T11:30:13;3.45;;;1.60;;
49051;SDS011;34866;48.670;18.260;2023-07-29T11:32:41;4.07;;;1.85;;
49051;SDS011;34866;48.670;18.260;2023-07-29T11:35:18;4.88;;;1.67;;
49051;SDS011;34866;48.670;18.260;2023-07-29T11:37:45;8.20;;;1.45;;
49051;SDS011;34866;48.670;18.260;2023-07-29T11:40:15;3.10;;;1.40;;
49051;SDS011;34866;48.670;18.260;2023-07-29T11:42:45;2.97;;;1.40;;
49051;SDS011;34866;48.670;18.260;2023-07-29T11:45:12;3.05;;;1.45;;
49051;SDS011;34866;48.670;18.260;2023-07-29T11:47:39;2.88;;;1.33;;
49051;SDS011;34866;48.670;18.260;2023-07-29T11:50:08;6.97;;;2.15;;
49051;SDS011;34866;48.670;18.260;2023-07-29T11:52:37;3.53;;;1.30;;
49051;SDS011;34866;48.670;18.260;2023-07-29T11:55:04;4.70;;;1.50;;
49051;SDS011;34866;48.670;18.260;2023-07-29T11:57:31;3.17;;;1.20;;
49051;SDS011;34866;48.670;18.260;2023-07-29T12:00:07;2.88;;;1.17;;
49051;SDS011;34866;48.670;18.260;2023-07-29T12:02:41;2.75;;;1.27;;
49051;SDS011;34866;48.670;18.260;2023-07-29T12:05:11;2.97;;;1.27;;
49051;SDS011;34866;48.670;18.260;2023-07-29T12:07:42;3.25;;;1.17;;
49051;SDS011;34866;48.670;18.260;2023-07-29T12:10:12;3.08;;;1.08;;
49051;SDS011;34866;48.670;18.260;2023-07-29T12:12:51;3.88;;;1.13;;
49051;SDS011;34866;48.670;18.260;2023-07-29T12:15:23;4.50;;;1.63;;
49051;SDS011;34866;48.670;18.260;2023-07-29T12:18:09;3.28;;;1.50;;
49051;SDS011;34866;48.670;18.260;2023-07-29T12:20:35;3.58;;;1.42;;
49051;SDS011;34866;48.670;18.260;2023-07-29T12:23:01;4.78;;;1.80;;
49051;SDS011;34866;48.670;18.260;2023-07-29T12:25:30;3.60;;;1.70;;
49051;SDS011;34866;48.670;18.260;2023-07-29T12:27:56;4.13;;;1.70;;
49051;SDS011;34866;48.670;18.260;2023-07-29T12:30:28;6.22;;;1.70;;
49051;SDS011;34866;48.670;18.260;2023-07-29T12:32:53;3.03;;;1.30;;
49051;SDS011;34866;48.670;18.260;2023-07-29T12:35:19;7.20;;;2.05;;
49051;SDS011;34866;48.670;18.260;2023-07-29T12:37:45;2.67;;;1.33;;
49051;SDS011;34866;48.670;18.260;2023-07-29T12:40:20;5.18;;;1.50;;
49051;SDS011;34866;48.670;18.260;2023-07-29T12:42:50;4.72;;;1.33;;
49051;SDS011;34866;48.670;18.260;2023-07-29T12:45:16;3.30;;;1.42;;
49051;SDS011;34866;48.670;18.260;2023-07-29T12:47:43;2.70;;;1.10;;
49051;SDS011;34866;48.670;18.260;2023-07-29T12:50:09;5.32;;;1.48;;
49051;SDS011;34866;48.670;18.260;2023-07-29T12:52:35;2.95;;;1.08;;
49051;SDS011;34866;48.670;18.260;2023-07-29T12:55:06;3.05;;;1.30;;
49051;SDS011;34866;48.670;18.260;2023-07-29T12:57:34;3.15;;;1.45;;
49051;SDS011;34866;48.670;18.260;2023-07-29T13:00:00;2.70;;;1.10;;
49051;SDS011;34866;48.670;18.260;2023-07-29T13:02:27;3.40;;;1.67;;
49051;SDS011;34866;48.670;18.260;2023-07-29T13:04:53;2.70;;;1.17;;
49051;SDS011;34866;48.670;18.260;2023-07-29T13:07:18;2.70;;;1.10;;
49051;SDS011;34866;48.670;18.260;2023-07-29T13:09:44;3.42;;;1.13;;
49051;SDS011;34866;48.670;18.260;2023-07-29T13:12:13;3.95;;;1.45;;
49051;SDS011;34866;48.670;18.260;2023-07-29T13:14:44;3.13;;;1.30;;
49051;SDS011;34866;48.670;18.260;2023-07-29T13:17:11;2.92;;;1.25;;
49051;SDS011;34866;48.670;18.260;2023-07-29T13:19:37;3.58;;;1.40;;
49051;SDS011;34866;48.670;18.260;2023-07-29T13:22:02;4.10;;;1.35;;
49051;SDS011;34866;48.670;18.260;2023-07-29T13:24:28;2.72;;;1.23;;
49051;SDS011;34866;48.670;18.260;2023-07-29T13:26:54;3.22;;;0.98;;
49051;SDS011;34866;48.670;18.260;2023-07-29T13:29:20;1.67;;;0.82;;
49051;SDS011;34866;48.670;18.260;2023-07-29T13:31:52;2.72;;;0.98;;
49051;SDS011;34866;48.670;18.260;2023-07-29T13:34:18;2.30;;;1.00;;
49051;SDS011;34866;48.670;18.260;2023-07-29T13:36:43;2.33;;;0.90;;
49051;SDS011;34866;48.670;18.260;2023-07-29T13:39:29;2.90;;;1.10;;
49051;SDS011;34866;48.670;18.260;2023-07-29T13:41:54;2.60;;;1.00;;
49051;SDS011;34866;48.670;18.260;2023-07-29T13:44:22;3.17;;;0.88;;
49051;SDS011;34866;48.670;18.260;2023-07-29T13:46:47;1.98;;;0.80;;
49051;SDS011;34866;48.670;18.260;2023-07-29T13:49:13;5.20;;;1.10;;
49051;SDS011;34866;48.670;18.260;2023-07-29T13:51:39;2.30;;;1.02;;
49051;SDS011;34866;48.670;18.260;2023-07-29T13:54:05;4.97;;;1.20;;
49051;SDS011;34866;48.670;18.260;2023-07-29T13:56:31;1.73;;;0.70;;
49051;SDS011;34866;48.670;18.260;2023-07-29T13:58:57;2.72;;;1.10;;
49051;SDS011;34866;48.670;18.260;2023-07-29T14:01:22;2.80;;;1.08;;
49051;SDS011;34866;48.670;18.260;2023-07-29T14:03:49;2.38;;;1.08;;
49051;SDS011;34866;48.670;18.260;2023-07-29T14:06:17;2.05;;;0.90;;
49051;SDS011;34866;48.670;18.260;2023-07-29T14:08:43;2.78;;;1.00;;
49051;SDS011;34866;48.670;18.260;2023-07-29T14:11:08;2.08;;;0.82;;
49051;SDS011;34866;48.670;18.260;2023-07-29T14:13:37;2.65;;;1.00;;
49051;SDS011;34866;48.670;18.260;2023-07-29T14:16:04;5.35;;;1.08;;
49051;SDS011;34866;48.670;18.260;2023-07-29T14:18:30;2.45;;;1.10;;
49051;SDS011;34866;48.670;18.260;2023-07-29T14:20:55;2.03;;;0.75;;
49051;SDS011;34866;48.670;18.260;2023-07-29T14:23:21;2.00;;;0.80;;
49051;SDS011;34866;48.670;18.260;2023-07-29T14:25:47;3.35;;;1.15;;
49051;SDS011;34866;48.670;18.260;2023-07-29T14:28:13;2.35;;;1.00;;
49051;SDS011;34866;48.670;18.260;2023-07-29T14:30:39;3.53;;;1.00;;
49051;SDS011;34866;48.670;18.260;2023-07-29T14:33:06;1.95;;;0.85;;
49051;SDS011;34866;48.670;18.260;2023-07-29T14:35:32;2.17;;;0.90;;
49051;SDS011;34866;48.670;18.260;2023-07-29T14:37:58;3.08;;;1.00;;
49051;SDS011;34866;48.670;18.260;2023-07-29T14:40:25;3.25;;;1.30;;
49051;SDS011;34866;48.670;18.260;2023-07-29T14:42:52;2.35;;;0.93;;
49051;SDS011;34866;48.670;18.260;2023-07-29T14:45:18;1.98;;;0.82;;
49051;SDS011;34866;48.670;18.260;2023-07-29T14:47:44;2.83;;;1.00;;
49051;SDS011;34866;48.670;18.260;2023-07-29T14:50:10;2.58;;;0.90;;
49051;SDS011;34866;48.670;18.260;2023-07-29T14:52:36;2.70;;;1.17;;
49051;SDS011;34866;48.670;18.260;2023-07-29T14:55:02;2.28;;;0.95;;
49051;SDS011;34866;48.670;18.260;2023-07-29T14:57:28;2.08;;;1.00;;
49051;SDS011;34866;48.670;18.260;2023-07-29T14:59:53;1.88;;;0.73;;
49051;SDS011;34866;48.670;18.260;2023-07-29T15:02:22;4.53;;;0.98;;
49051;SDS011;34866;48.670;18.260;2023-07-29T15:04:49;3.67;;;0.80;;
49051;SDS011;34866;48.670;18.260;2023-07-29T15:07:14;2.75;;;1.08;;
49051;SDS011;34866;48.670;18.260;2023-07-29T15:09:40;2.60;;;1.10;;
49051;SDS011;34866;48.670;18.260;2023-07-29T15:12:06;2.53;;;1.02;;
49051;SDS011;34866;48.670;18.260;2023-07-29T15:14:32;2.35;;;0.80;;
49051;SDS011;34866;48.670;18.260;2023-07-29T15:16:59;6.53;;;1.02;;
49051;SDS011;34866;48.670;18.260;2023-07-29T15:19:25;4.40;;;1.10;;
49051;SDS011;34866;48.670;18.260;2023-07-29T15:21:50;2.22;;;0.80;;
49051;SDS011;34866;48.670;18.260;2023-07-29T15:24:16;1.90;;;0.73;;
49051;SDS011;34866;48.670;18.260;2023-07-29T15:26:42;3.65;;;1.15;;
49051;SDS011;34866;48.670;18.260;2023-07-29T15:29:08;3.80;;;1.27;;
49051;SDS011;34866;48.670;18.260;2023-07-29T15:31:34;9.13;;;1.50;;
49051;SDS011;34866;48.670;18.260;2023-07-29T15:34:06;5.57;;;2.05;;
49051;SDS011;34866;48.670;18.260;2023-07-29T15:36:33;5.45;;;1.70;;
49051;SDS011;34866;48.670;18.260;2023-07-29T15:39:01;5.80;;;2.60;;
49051;SDS011;34866;48.670;18.260;2023-07-29T15:41:27;20.58;;;5.50;;
49051;SDS011;34866;48.670;18.260;2023-07-29T15:46:19;8.45;;;2.20;;
49051;SDS011;34866;48.670;18.260;2023-07-29T15:48:50;10.43;;;1.98;;
49051;SDS011;34866;48.670;18.260;2023-07-29T15:51:36;7.68;;;1.80;;
49051;SDS011;34866;48.670;18.260;2023-07-29T15:54:03;8.43;;;2.55;;
49051;SDS011;34866;48.670;18.260;2023-07-29T15:56:29;3.80;;;1.83;;
49051;SDS011;34866;48.670;18.260;2023-07-29T15:59:04;2.83;;;0.98;;
49051;SDS011;34866;48.670;18.260;2023-07-29T16:01:30;7.93;;;1.60;;
49051;SDS011;34866;48.670;18.260;2023-07-29T16:03:56;4.03;;;1.27;;
49051;SDS011;34866;48.670;18.260;2023-07-29T16:06:21;3.22;;;1.02;;
49051;SDS011;34866;48.670;18.260;2023-07-29T16:08:48;2.45;;;0.95;;
49051;SDS011;34866;48.670;18.260;2023-07-29T16:20:18;4.68;;;1.50;;
49051;SDS011;34866;48.670;18.260;2023-07-29T16:23:25;2.97;;;1.40;;
49051;SDS011;34866;48.670;18.260;2023-07-29T16:25:53;3.35;;;1.30;;
49051;SDS011;34866;48.670;18.260;2023-07-29T16:28:25;6.75;;;1.83;;
49051;SDS011;34866;48.670;18.260;2023-07-29T16:30:58;2.58;;;1.23;;
49051;SDS011;34866;48.670;18.260;2023-07-29T16:33:27;3.00;;;1.25;;
49051;SDS011;34866;48.670;18.260;2023-07-29T16:35:54;3.78;;;1.33;;
49051;SDS011;34866;48.670;18.260;2023-07-29T16:38:25;4.20;;;1.50;;
49051;SDS011;34866;48.670;18.260;2023-07-29T16:41:27;3.70;;;1.52;;
49051;SDS011;34866;48.670;18.260;2023-07-29T16:43:52;3.28;;;1.60;;
49051;SDS011;34866;48.670;18.260;2023-07-29T16:46:18;5.10;;;1.45;;
49051;SDS011;34866;48.670;18.260;2023-07-29T16:48:44;3.75;;;1.27;;
49051;SDS011;34866;48.670;18.260;2023-07-29T16:51:14;3.97;;;1.58;;
49051;SDS011;34866;48.670;18.260;2023-07-29T16:54:00;2.17;;;0.98;;
49051;SDS011;34866;48.670;18.260;2023-07-29T16:56:25;3.17;;;1.33;;
49051;SDS011;34866;48.670;18.260;2023-07-29T16:58:52;3.22;;;1.50;;
49051;SDS011;34866;48.670;18.260;2023-07-29T17:01:18;4.00;;;1.70;;
49051;SDS011;34866;48.670;18.260;2023-07-29T17:03:43;4.75;;;1.83;;
49051;SDS011;34866;48.670;18.260;2023-07-29T17:06:31;3.60;;;1.48;;
49051;SDS011;34866;48.670;18.260;2023-07-29T17:08:56;5.38;;;2.20;;
49051;SDS011;34866;48.670;18.260;2023-07-29T17:11:22;6.05;;;2.05;;